Time;durP1;ratioP1;P1;durP2;ratioP2;P2;SDS_P1;SDS_P2;PMS_P1;PMS_P2;Temp;Humidity;BMP_temperature;BMP_pressure;BME280_temperature;BME280_humidity;BME280_pressure;Samples;Min_cycle;Max_cycle;Signal;HPM_P1;HPM_P2
2023/04/21 00:00:13;;;;;;;17.63;14.00;;;;;;;9.72;61.73;98442.59;7006085;28;20281;-88
2023/04/21 00:03:37;;;;;;;19.03;15.10;;;;;;;10.09;61.07;98446.53;7005871;28;20229;-84
2023/04/21 00:07:00;;;;;;;19.57;15.73;;;;;;;10.33;60.50;98451.22;7006084;28;20227;-84
2023/04/21 00:10:23;;;;;;;15.60;13.67;;;;;;;10.19;60.11;98438.81;6987787;28;20209;-84
2023/04/21 00:13:44;;;;;;;15.80;14.10;;;;;;;10.35;60.35;98431.13;7006558;28;20339;-84
2023/04/21 00:17:06;;;;;;;19.80;15.17;;;;;;;10.12;60.32;98397.59;7010980;28;20278;-84
2023/04/21 00:20:30;;;;;;;17.77;14.23;;;;;;;10.24;59.93;98434.47;7012137;28;20308;-84
2023/04/21 00:23:52;;;;;;;18.90;15.67;;;;;;;9.90;60.93;98406.94;7012367;28;20289;-85
2023/04/21 00:27:25;;;;;;;18.63;15.30;;;;;;;9.89;60.98;98408.84;7011520;28;20201;-85
2023/04/21 00:31:05;;;;;;;20.83;16.23;;;;;;;9.84;61.00;98426.63;7010357;28;20210;-84
2023/04/21 00:34:26;;;;;;;19.50;15.87;;;;;;;10.04;61.59;98427.47;7008827;28;20290;-84
2023/04/21 00:37:49;;;;;;;20.87;15.80;;;;;;;9.78;61.91;98425.63;7009537;28;20776;-85
2023/04/21 00:41:11;;;;;;;20.27;16.30;;;;;;;9.79;61.52;98424.56;7009089;28;20209;-84
2023/04/21 00:44:32;;;;;;;18.30;14.63;;;;;;;9.71;62.01;98418.59;7007745;28;20270;-83
2023/04/21 00:47:54;;;;;;;20.73;15.70;;;;;;;9.80;61.95;98411.97;7008833;28;20693;-84
2023/04/21 00:51:15;;;;;;;22.47;16.23;;;;;;;9.79;61.49;98416.50;7008863;28;20198;-83
2023/04/21 00:54:39;;;;;;;21.37;16.47;;;;;;;9.29;62.10;98343.69;7007825;28;20320;-84
2023/04/21 00:58:00;;;;;;;21.53;16.47;;;;;;;9.95;61.31;98407.16;7011330;28;20268;-84
2023/04/21 01:01:23;;;;;;;20.23;15.70;;;;;;;9.93;61.34;98379.63;7035396;28;20270;-84
2023/04/21 01:04:44;;;;;;;22.13;18.00;;;;;;;10.21;59.85;98402.53;7034773;28;20221;-84
2023/04/21 01:08:06;;;;;;;20.07;15.37;;;;;;;10.20;59.46;98400.06;7035900;28;20207;-83
2023/04/21 01:11:30;;;;;;;18.03;14.30;;;;;;;9.11;60.43;98378.47;7036183;28;20193;-83
2023/04/21 01:14:51;;;;;;;22.57;15.00;;;;;;;9.27;60.74;98365.41;7036085;28;20228;-83
2023/04/21 01:18:13;;;;;;;21.17;15.37;;;;;;;8.91;61.75;98309.56;7037247;28;20265;-83
2023/04/21 01:21:40;;;;;;;22.23;15.50;;;;;;;9.34;61.89;98381.56;7035634;28;20201;-83
2023/04/21 01:25:02;;;;;;;21.27;16.20;;;;;;;9.37;61.75;98376.59;7036626;28;20768;-84
2023/04/21 01:28:24;;;;;;;20.97;16.53;;;;;;;9.58;60.99;98378.22;7037247;28;20220;-83
2023/04/21 01:31:47;;;;;;;21.33;15.00;;;;;;;9.40;60.81;98370.78;7034791;28;20669;-87
2023/04/21 01:35:09;;;;;;;18.67;14.63;;;;;;;9.21;60.30;98335.84;7034411;28;20370;-86
2023/04/21 01:38:32;;;;;;;21.80;15.70;;;;;;;9.13;61.68;98385.28;7034586;28;20224;-86
2023/04/21 01:41:54;;;;;;;19.77;15.33;;;;;;;9.59;60.42;98386.09;7034943;28;20296;-87
2023/04/21 01:45:15;;;;;;;26.73;22.17;;;;;;;9.46;60.38;98380.72;7037946;28;20286;-83
2023/04/21 01:48:37;;;;;;;20.00;14.67;;;;;;;9.29;59.86;98338.31;7038871;28;20296;-84
2023/04/21 01:51:59;;;;;;;20.50;14.73;;;;;;;9.02;59.81;98386.94;7039144;28;20233;-84
2023/04/21 01:55:22;;;;;;;21.03;14.63;;;;;;;8.36;61.38;98320.66;7029459;28;20228;-83
2023/04/21 01:58:44;;;;;;;23.53;15.43;;;;;;;7.78;62.12;98303.25;7011326;28;20229;-84
2023/04/21 02:02:05;;;;;;;22.60;16.07;;;;;;;7.87;63.59;98293.19;7010933;28;20292;-84
2023/04/21 02:05:27;;;;;;;24.73;17.70;;;;;;;8.66;62.60;98387.28;7011201;28;20290;-83
2023/04/21 02:08:48;;;;;;;25.20;17.23;;;;;;;8.55;62.90;98403.97;7017996;28;20216;-84
2023/04/21 02:12:11;;;;;;;21.47;15.80;;;;;;;8.72;62.44;98389.13;7039014;28;20208;-83
2023/04/21 02:15:33;;;;;;;26.23;18.60;;;;;;;8.24;62.58;98320.41;7039606;28;20217;-86
2023/04/21 02:18:55;;;;;;;26.70;17.07;;;;;;;8.83;62.33;98393.13;7036989;28;20237;-87
2023/04/21 02:22:17;;;;;;;23.93;16.30;;;;;;;8.60;62.52;98389.97;7035157;28;20266;-85
2023/04/21 02:25:38;;;;;;;23.70;16.80;;;;;;;8.79;61.58;98375.72;7036345;28;20321;-86
2023/04/21 02:29:02;;;;;;;22.40;16.20;;;;;;;8.80;61.89;98380.91;7036371;28;20286;-86
2023/04/21 02:32:23;;;;;;;26.87;17.57;;;;;;;8.88;61.14;98364.56;7036080;28;20197;-86
2023/04/21 02:35:45;;;;;;;23.60;17.43;;;;;;;8.78;61.25;98352.59;7033293;28;20224;-86
2023/04/21 02:39:07;;;;;;;23.00;16.57;;;;;;;9.02;61.30;98393.97;7030021;28;20212;-86
2023/04/21 02:42:28;;;;;;;23.90;15.90;;;;;;;8.97;60.86;98381.34;7012234;28;20676;-86
2023/04/21 02:45:52;;;;;;;20.13;14.33;;;;;;;8.59;59.34;98362.25;7035929;28;20701;-87
2023/04/21 02:49:13;;;;;;;21.67;14.97;;;;;;;8.58;59.86;98390.16;7037158;28;20309;-86
2023/04/21 02:52:36;;;;;;;21.23;15.83;;;;;;;8.53;60.50;98400.66;7037208;28;20331;-86
2023/04/21 02:55:57;;;;;;;22.47;16.07;;;;;;;8.46;61.72;98389.09;7036483;28;20214;-85
2023/04/21 02:59:19;;;;;;;24.57;17.77;;;;;;;8.41;61.93;98404.97;7030172;28;20225;-86
2023/04/21 03:02:42;;;;;;;25.07;16.17;;;;;;;8.09;62.17;98399.44;7037164;28;20204;-86
2023/04/21 03:06:05;;;;;;;22.27;16.27;;;;;;;8.14;63.00;98396.97;7037512;28;20364;-86
2023/04/21 03:09:26;;;;;;;20.30;14.03;;;;;;;8.01;62.19;98340.56;7037652;28;20258;-86
2023/04/21 03:12:47;;;;;;;24.90;16.53;;;;;;;8.25;62.02;98373.09;7035908;28;20266;-86
2023/04/21 03:16:09;;;;;;;48.57;27.83;;;;;;;8.28;61.91;98390.66;7036269;28;20242;-86
2023/04/21 03:19:32;;;;;;;29.07;18.33;;;;;;;8.02;61.35;98334.97;7035732;28;20311;-86
2023/04/21 03:22:54;;;;;;;23.67;16.77;;;;;;;7.79;61.65;98310.28;7035066;28;20217;-86
2023/04/21 03:26:15;;;;;;;20.80;15.70;;;;;;;8.57;60.62;98366.16;7035906;28;20331;-86
2023/04/21 03:29:37;;;;;;;20.17;14.53;;;;;;;8.31;60.14;98361.53;7036003;28;20346;-86
2023/04/21 03:32:58;;;;;;;22.73;16.50;;;;;;;7.41;63.73;98325.16;7035621;28;20339;-87
2023/04/21 03:36:21;;;;;;;26.20;16.30;;;;;;;8.27;62.11;98371.06;7006942;28;20205;-86
2023/04/21 03:39:43;;;;;;;20.40;14.77;;;;;;;8.18;60.94;98339.97;7007508;28;20253;-86
2023/04/21 03:43:04;;;;;;;24.03;16.77;;;;;;;8.30;60.27;98378.69;7006564;28;20221;-86
2023/04/21 03:46:26;;;;;;;23.30;15.67;;;;;;;8.43;60.58;98383.28;7006817;28;20213;-87
2023/04/21 03:49:47;;;;;;;23.30;15.17;;;;;;;8.46;61.27;98369.44;7004218;28;20677;-86
2023/04/21 03:53:10;;;;;;;32.23;17.20;;;;;;;8.35;61.22;98375.38;7031780;28;20253;-86
2023/04/21 03:56:32;;;;;;;28.40;16.87;;;;;;;8.39;61.18;98360.53;7032557;28;20238;-87
2023/04/21 03:59:53;;;;;;;20.93;14.53;;;;;;;7.97;60.79;98379.53;7033640;28;20316;-86
2023/04/21 04:03:15;;;;;;;22.47;16.27;;;;;;;7.66;62.45;98376.50;7033623;28;20260;-86
2023/04/21 04:06:36;;;;;;;24.90;16.87;;;;;;;7.67;61.99;98330.66;7033992;28;20714;-86
2023/04/21 04:09:59;;;;;;;23.23;16.03;;;;;;;8.16;62.15;98401.13;7023366;28;20353;-86
2023/04/21 04:13:21;;;;;;;23.07;16.43;;;;;;;7.88;61.10;98344.00;7026526;28;20283;-85
2023/04/21 04:16:43;;;;;;;23.77;14.93;;;;;;;8.01;60.72;98378.13;7036918;28;20218;-86
2023/04/21 04:20:07;;;;;;;22.13;15.80;;;;;;;7.93;61.06;98336.16;7034683;28;20387;-86
2023/04/21 04:23:28;;;;;;;21.37;15.50;;;;;;;8.43;60.83;98370.66;7034204;28;20239;-86
2023/04/21 04:26:53;;;;;;;22.37;16.63;;;;;;;8.65;60.66;98400.91;7034640;28;20218;-86
2023/04/21 04:30:15;;;;;;;20.37;15.33;;;;;;;8.67;60.31;98394.28;7033885;28;20205;-86
2023/04/21 04:33:37;;;;;;;22.63;15.70;;;;;;;8.46;60.87;98390.94;7033238;28;20592;-85
2023/04/21 04:36:58;;;;;;;22.97;16.43;;;;;;;8.18;60.10;98305.06;7034600;28;20212;-85
2023/04/21 04:40:21;;;;;;;24.70;17.43;;;;;;;7.86;61.07;98267.38;7034267;28;20294;-86
2023/04/21 04:43:44;;;;;;;22.67;15.73;;;;;;;7.97;61.69;98321.34;7031698;28;20223;-86
2023/04/21 04:47:06;;;;;;;24.03;15.20;;;;;;;8.45;60.98;98362.41;7035492;28;20281;-86
2023/04/21 04:50:27;;;;;;;20.30;14.33;;;;;;;8.41;61.25;98390.69;7035982;28;20207;-86
2023/04/21 04:53:49;;;;;;;27.23;18.10;;;;;;;8.37;60.49;98397.53;7034555;28;20243;-87
2023/04/21 04:57:10;;;;;;;30.03;17.70;;;;;;;7.76;62.35;98409.97;7035367;28;20673;-87
2023/04/21 05:00:33;;;;;;;26.80;17.97;;;;;;;8.08;62.52;98378.97;7029648;28;20609;-87
2023/04/21 05:04:03;;;;;;;31.30;19.77;;;;;;;8.03;62.00;98328.59;7041746;28;20407;-88
2023/04/21 05:07:25;;;;;;;30.57;17.70;;;;;;;8.10;62.62;98404.59;7036163;28;20202;-85
2023/04/21 05:10:47;;;;;;;28.07;17.77;;;;;;;7.86;63.96;98413.16;7024927;28;20547;-85
2023/04/21 05:14:09;;;;;;;28.10;17.80;;;;;;;8.11;63.71;98406.25;7021032;28;20263;-84
2023/04/21 05:17:32;;;;;;;25.87;17.90;;;;;;;8.66;63.15;98383.78;7024858;28;20222;-85
2023/04/21 05:20:54;;;;;;;26.07;17.53;;;;;;;9.15;61.67;98402.03;7030986;28;20304;-85
2023/04/21 05:24:16;;;;;;;28.80;19.70;;;;;;;8.99;62.06;98421.25;7040183;28;20312;-85
2023/04/21 05:27:37;;;;;;;25.30;17.60;;;;;;;9.07;62.28;98427.47;7044368;28;20204;-85
2023/04/21 05:30:59;;;;;;;27.90;19.10;;;;;;;8.62;63.45;98404.84;7042066;28;20613;-85
2023/04/21 05:34:21;;;;;;;27.67;18.40;;;;;;;9.16;63.34;98438.66;7039976;28;20254;-85
2023/04/21 05:37:43;;;;;;;28.13;18.70;;;;;;;9.10;62.79;98431.41;7040310;28;20464;-85
2023/04/21 05:41:05;;;;;;;25.00;17.63;;;;;;;8.99;63.16;98440.06;7038089;28;20770;-85
2023/04/21 05:44:26;;;;;;;29.00;19.13;;;;;;;9.10;63.50;98426.03;7037471;28;20714;-86
2023/04/21 05:51:26;;;;;;;26.20;18.33;;;;;;;9.75;61.58;98398.28;7030322;28;20307;-85
2023/04/21 05:59:10;;;;;;;25.67;17.73;;;;;;;9.66;61.43;98356.47;7038961;28;20200;-84
2023/04/21 06:02:32;;;;;;;30.83;19.40;;;;;;;10.05;61.06;98407.56;7038685;28;20303;-85
2023/04/21 06:05:54;;;;;;;26.57;18.23;;;;;;;9.60;61.53;98393.13;7039235;28;20244;-86
2023/04/21 06:09:17;;;;;;;30.90;18.60;;;;;;;8.99;63.87;98363.97;7039189;28;20235;-86
2023/04/21 06:12:39;;;;;;;26.33;17.70;;;;;;;9.98;62.68;98385.19;7036994;28;20233;-86
2023/04/21 06:16:00;;;;;;;30.40;19.27;;;;;;;9.40;62.07;98290.06;7038409;28;20296;-86
2023/04/21 06:19:22;;;;;;;27.80;19.43;;;;;;;10.65;61.63;98393.66;7036360;28;20228;-81
2023/04/21 06:22:44;;;;;;;25.77;17.87;;;;;;;10.74;60.37;98371.63;7034526;28;20338;-86
2023/04/21 06:26:08;;;;;;;29.30;19.40;;;;;;;10.32;60.48;98312.13;7035337;28;20305;-83
2023/04/21 06:29:30;;;;;;;25.57;18.03;;;;;;;10.19;61.57;98342.69;7035054;28;20763;-82
2023/04/21 06:32:52;;;;;;;23.37;17.40;;;;;;;10.83;60.67;98383.81;7035578;28;20201;-84
2023/04/21 06:36:13;;;;;;;27.53;19.00;;;;;;;10.67;61.74;98378.91;7035419;28;20299;-85
2023/04/21 06:39:35;;;;;;;26.13;19.20;;;;;;;10.34;62.77;98389.00;7040935;28;20227;-85
2023/04/21 06:42:58;;;;;;;26.33;18.83;;;;;;;10.08;63.69;98378.34;7033349;28;20254;-83
2023/04/21 06:46:19;;;;;;;26.43;19.03;;;;;;;11.11;62.29;98405.00;7034178;28;20211;-84
2023/04/21 06:49:41;;;;;;;22.27;17.83;;;;;;;10.85;62.03;98362.84;7034044;28;20292;-84
2023/04/21 06:53:02;;;;;;;22.17;18.47;;;;;;;11.68;61.15;98415.59;7026948;28;20694;-84
2023/04/21 06:56:24;;;;;;;22.80;18.93;;;;;;;10.73;62.99;98399.63;7026564;28;20341;-83
2023/04/21 06:59:47;;;;;;;20.87;17.30;;;;;;;11.11;63.54;98407.69;7034646;28;20734;-84
2023/04/21 07:03:09;;;;;;;19.73;16.03;;;;;;;11.90;60.84;98382.53;7006951;28;20684;-83
2023/04/21 07:06:30;;;;;;;19.10;15.83;;;;;;;12.39;59.64;98385.06;7031688;28;20193;-84
2023/04/21 07:09:52;;;;;;;19.30;16.60;;;;;;;12.77;59.34;98392.91;7011232;28;20202;-84
2023/04/21 07:13:14;;;;;;;22.40;17.27;;;;;;;12.63;59.80;98386.84;7008292;28;20358;-83
2023/04/21 07:16:37;;;;;;;20.47;16.83;;;;;;;12.57;59.81;98370.72;7007347;28;20213;-83
2023/04/21 07:19:59;;;;;;;18.17;15.73;;;;;;;12.71;59.14;98378.44;7006678;28;20363;-83
2023/04/21 07:23:28;;;;;;;19.47;16.73;;;;;;;11.33;60.84;98258.66;7005885;28;20306;-83
2023/04/21 07:26:50;;;;;;;15.07;13.47;;;;;;;12.66;59.03;98366.63;7006299;28;20252;-83
2023/04/21 07:30:12;;;;;;;14.30;12.80;;;;;;;12.80;58.54;98335.66;7007023;28;20198;-83
2023/04/21 07:33:35;;;;;;;15.90;13.97;;;;;;;11.51;61.03;98345.06;7009483;28;20333;-84
2023/04/21 07:36:56;;;;;;;14.77;12.37;;;;;;;12.66;59.37;98355.81;7049268;28;20251;-84
2023/04/21 07:40:18;;;;;;;16.27;14.13;;;;;;;13.09;58.86;98345.66;7047846;28;20250;-84
2023/04/21 07:43:40;;;;;;;13.43;12.03;;;;;;;13.43;56.76;98363.81;7042547;28;20678;-83
2023/04/21 07:47:02;;;;;;;13.67;12.27;;;;;;;13.79;56.14;98341.91;7032387;28;20362;-83
2023/04/21 07:50:25;;;;;;;13.63;12.23;;;;;;;13.77;56.27;98336.75;7034945;28;20197;-84
2023/04/21 07:53:46;;;;;;;11.67;10.33;;;;;;;13.65;55.00;98327.81;7033033;28;20296;-83
2023/04/21 07:57:08;;;;;;;10.87;9.77;;;;;;;14.40;54.06;98358.50;7031181;28;20337;-84
2023/04/21 08:00:29;;;;;;;11.33;10.23;;;;;;;14.14;54.39;98345.41;7030955;28;20618;-84
2023/04/21 08:03:51;;;;;;;10.43;9.43;;;;;;;14.25;53.99;98355.44;7030665;28;20305;-82
2023/04/21 08:07:14;;;;;;;10.23;9.23;;;;;;;14.12;54.75;98329.41;7031994;28;20346;-83
2023/04/21 08:10:35;;;;;;;9.60;8.70;;;;;;;14.55;53.96;98361.50;7021478;28;20204;-83
2023/04/21 08:13:57;;;;;;;8.33;7.53;;;;;;;15.10;51.36;98349.00;7002411;28;20226;-83
2023/04/21 08:17:18;;;;;;;7.83;7.03;;;;;;;15.02;53.44;98349.38;7003319;28;20207;-83
2023/04/21 08:20:40;;;;;;;8.23;7.43;;;;;;;14.85;53.14;98352.06;7003046;28;20317;-83
2023/04/21 08:24:03;;;;;;;8.33;7.53;;;;;;;14.82;53.09;98351.72;7001703;28;20774;-83
2023/04/21 08:27:24;;;;;;;7.83;7.13;;;;;;;14.59;52.92;98355.38;7003157;28;20347;-81
2023/04/21 08:30:46;;;;;;;9.17;8.23;;;;;;;13.89;55.16;98356.53;7002429;28;20233;-81
2023/04/21 08:34:08;;;;;;;8.57;7.77;;;;;;;15.36;53.40;98332.91;7001801;28;20570;-80
2023/04/21 08:37:29;;;;;;;7.07;6.47;;;;;;;16.73;48.85;98343.56;7005998;28;20202;-81
2023/04/21 08:40:54;;;;;;;9.70;7.57;;;;;;;16.62;48.60;98319.19;7007725;28;20228;-81
2023/04/21 08:44:18;;;;;;;8.03;7.23;;;;;;;16.19;48.28;98343.66;7007027;28;20300;-81
2023/04/21 08:47:41;;;;;;;7.43;6.73;;;;;;;17.08;47.38;98327.59;7007379;28;20218;-82
2023/04/21 08:51:02;;;;;;;7.63;6.93;;;;;;;17.28;47.24;98348.75;7007863;28;20723;-81
2023/04/21 08:54:24;;;;;;;9.17;8.30;;;;;;;15.53;52.77;98319.31;7006621;28;20276;-80
2023/04/21 08:57:47;;;;;;;10.07;8.97;;;;;;;15.83;52.34;98317.06;7007117;28;20216;-80
2023/04/21 09:01:08;;;;;;;10.10;8.57;;;;;;;15.78;53.25;98312.38;7007411;28;20322;-82
2023/04/21 09:04:30;;;;;;;9.77;8.67;;;;;;;15.48;54.35;98317.34;7016031;28;20316;-81
2023/04/21 09:07:52;;;;;;;9.97;8.13;;;;;;;15.14;55.26;98295.81;7007997;28;20227;-86
2023/04/21 09:11:14;;;;;;;9.07;8.20;;;;;;;15.94;52.00;98306.09;7020788;28;20288;-79
2023/04/21 09:14:37;;;;;;;10.00;9.00;;;;;;;16.08;52.02;98310.06;7006560;28;20225;-78
2023/04/21 09:17:59;;;;;;;9.40;8.40;;;;;;;16.73;50.17;98308.16;7018568;28;20256;-78
2023/04/21 09:21:22;;;;;;;8.97;7.80;;;;;;;14.98;53.60;98247.78;7014193;28;20711;-79
2023/04/21 09:24:47;;;;;;;8.10;7.30;;;;;;;16.20;51.95;98318.94;7006545;28;20230;-79
2023/04/21 09:28:09;;;;;;;6.93;6.33;;;;;;;15.17;54.28;98295.34;7007226;28;20343;-79
2023/04/21 09:31:35;;;;;;;6.97;6.23;;;;;;;16.79;50.10;98307.16;7007093;28;20685;-79
2023/04/21 09:35:00;;;;;;;7.37;6.67;;;;;;;16.20;50.93;98299.06;7006294;28;20318;-79
2023/04/21 09:38:22;;;;;;;8.37;6.60;;;;;;;15.89;51.66;98302.47;7006519;28;20209;-79
2023/04/21 09:41:44;;;;;;;6.97;6.33;;;;;;;16.52;50.90;98300.03;7006290;28;20224;-79
2023/04/21 09:45:08;;;;;;;7.37;6.67;;;;;;;16.61;50.36;98309.38;7006966;28;20225;-79
2023/04/21 09:48:32;;;;;;;7.77;6.97;;;;;;;17.07;50.25;98309.63;7005253;28;20291;-80
2023/04/21 09:51:53;;;;;;;7.57;6.80;;;;;;;16.86;50.25;98302.31;7006563;28;20354;-82
2023/04/21 09:55:15;;;;;;;6.97;6.27;;;;;;;17.03;49.65;98310.38;7016943;28;20365;-79
2023/04/21 09:58:41;;;;;;;8.57;7.23;;;;;;;18.08;46.74;98298.38;7035528;28;20239;-79
2023/04/21 10:02:05;;;;;;;8.83;6.73;;;;;;;16.79;50.46;98298.16;7038264;28;20696;-78
2023/04/21 10:05:29;;;;;;;8.43;7.17;;;;;;;17.28;50.06;98276.00;7019342;28;20305;-79
2023/04/21 10:08:51;;;;;;;8.30;7.50;;;;;;;17.63;47.78;98291.84;7026670;28;20201;-79
2023/04/21 10:12:14;;;;;;;11.67;7.43;;;;;;;18.33;46.29;98232.22;7031919;28;20197;-78
2023/04/21 10:15:39;;;;;;;8.10;7.23;;;;;;;18.15;45.95;98240.81;7015745;28;20253;-79
2023/04/21 10:19:00;;;;;;;9.27;7.53;;;;;;;17.10;47.87;98215.66;7014060;28;20197;-79
2023/04/21 10:22:31;;;;;;;8.77;7.50;;;;;;;17.23;48.99;98253.34;7008619;28;20269;-79
2023/04/21 10:25:52;;;;;;;9.37;7.83;;;;;;;17.97;47.53;98255.78;7030240;28;20297;-79
2023/04/21 10:29:15;;;;;;;9.80;7.53;;;;;;;17.02;50.25;98243.34;7018918;28;20255;-79
2023/04/21 10:32:41;;;;;;;8.93;8.03;;;;;;;17.74;47.47;98230.84;7010502;28;20330;-79
2023/04/21 10:36:03;;;;;;;8.63;7.73;;;;;;;18.73;46.28;98254.16;7019132;28;20268;-79
2023/04/21 10:39:27;;;;;;;9.13;8.23;;;;;;;19.24;44.62;98255.88;7033232;28;20295;-79
2023/04/21 10:42:49;;;;;;;9.03;7.70;;;;;;;18.66;46.37;98243.50;7024337;28;20231;-79
2023/04/21 10:46:31;;;;;;;8.53;7.70;;;;;;;18.24;45.93;98248.25;7024338;28;20295;-79
2023/04/21 10:49:53;;;;;;;8.37;7.53;;;;;;;18.15;48.64;98247.13;7016390;28;20270;-79
2023/04/21 10:53:16;;;;;;;7.73;6.93;;;;;;;18.76;45.38;98237.22;7008234;28;20578;-79
2023/04/21 10:56:40;;;;;;;7.37;6.67;;;;;;;18.50;46.51;98240.97;7023842;28;20228;-79
2023/04/21 11:00:05;;;;;;;8.33;7.30;;;;;;;18.84;45.43;98225.75;7020490;28;20254;-79
2023/04/21 11:03:34;;;;;;;8.20;7.40;;;;;;;17.95;48.95;98225.22;7012602;28;20217;-79
2023/04/21 11:07:06;;;;;;;8.73;6.97;;;;;;;19.58;44.26;98246.00;7004356;28;20800;-79
2023/04/21 11:10:28;;;;;;;7.23;6.53;;;;;;;19.50;45.78;98232.88;7003977;28;20704;-79
2023/04/21 11:13:52;;;;;;;7.20;6.50;;;;;;;19.80;43.53;98222.69;7008765;28;20313;-80
2023/04/21 11:17:15;;;;;;;7.20;6.47;;;;;;;19.39;44.75;98218.41;7032150;28;20323;-79
2023/04/21 11:20:40;;;;;;;7.07;6.37;;;;;;;19.64;43.93;98214.81;7031861;28;20230;-79
2023/04/21 11:24:02;;;;;;;7.17;6.47;;;;;;;20.17;43.51;98201.22;7007628;28;20227;-79
2023/04/21 11:27:26;;;;;;;7.20;6.50;;;;;;;18.86;46.17;98227.13;7037990;28;20204;-79
2023/04/21 11:30:49;;;;;;;6.63;5.90;;;;;;;20.38;43.23;98213.72;7036412;28;20293;-79
2023/04/21 11:34:10;;;;;;;6.93;6.23;;;;;;;20.75;41.37;98205.81;7030976;28;20260;-79
2023/04/21 11:37:32;;;;;;;7.27;6.00;;;;;;;20.59;43.07;98193.34;7028958;28;20668;-79
2023/04/21 11:40:53;;;;;;;7.47;6.30;;;;;;;19.65;42.48;98173.53;7010897;28;20365;-79
2023/04/21 11:44:31;;;;;;;7.57;6.87;;;;;;;19.39;44.56;98207.47;7017888;28;20710;-79
2023/04/21 11:48:12;;;;;;;6.80;6.20;;;;;;;19.15;44.99;98198.16;7002552;28;20214;-79
2023/04/21 11:51:34;;;;;;;5.70;5.20;;;;;;;20.28;43.68;98200.09;7002155;28;20292;-80
2023/04/21 11:54:58;;;;;;;5.80;5.30;;;;;;;19.95;43.20;98211.72;7019510;28;20228;-79
2023/04/21 11:58:21;;;;;;;6.20;5.60;;;;;;;21.50;39.64;98177.81;7002770;28;20297;-79
2023/04/21 12:01:43;;;;;;;6.40;5.07;;;;;;;21.18;39.77;98159.19;7001880;28;20285;-79
2023/04/21 12:05:08;;;;;;;5.87;5.27;;;;;;;21.48;40.48;98180.81;7003409;28;20590;-79
2023/04/21 12:08:30;;;;;;;9.07;5.60;;;;;;;20.48;42.25;98183.56;7002877;28;20294;-80
2023/04/21 12:11:53;;;;;;;7.37;5.80;;;;;;;20.96;41.50;98165.41;7023417;28;20277;-80
2023/04/21 12:15:20;;;;;;;5.47;4.97;;;;;;;21.48;40.93;98177.28;7030932;28;20303;-79
2023/04/21 12:18:43;;;;;;;6.73;6.13;;;;;;;20.51;41.69;98174.75;7031339;28;20199;-79
2023/04/21 12:22:08;;;;;;;6.03;5.53;;;;;;;20.11;43.57;98176.91;7030203;28;20224;-79
2023/04/21 12:25:30;;;;;;;6.40;5.80;;;;;;;21.05;40.82;98167.25;7030902;28;20220;-81
2023/04/21 12:28:51;;;;;;;7.23;5.83;;;;;;;20.25;42.28;98162.34;7029551;28;20280;-83
2023/04/21 12:32:13;;;;;;;6.40;5.80;;;;;;;20.76;41.60;98168.31;7029250;28;20289;-81
2023/04/21 12:35:34;;;;;;;5.97;5.47;;;;;;;21.26;41.74;98168.72;7028793;28;20719;-78
2023/04/21 12:38:57;;;;;;;5.70;5.10;;;;;;;20.53;42.82;98136.16;7026840;28;20738;-79
2023/04/21 12:42:19;;;;;;;5.90;5.40;;;;;;;21.13;41.48;98144.72;7000393;28;20315;-77
2023/04/21 12:45:40;;;;;;;5.27;4.77;;;;;;;20.95;41.99;98147.34;7001604;28;20668;-77
2023/04/21 12:49:02;;;;;;;6.00;5.40;;;;;;;21.30;40.58;98140.41;7001345;28;20341;-77
2023/04/21 12:52:25;;;;;;;5.87;5.33;;;;;;;21.13;41.70;98137.28;7001311;28;20206;-82
2023/04/21 12:55:47;;;;;;;6.00;5.40;;;;;;;21.40;40.47;98115.66;7021370;28;20267;-77
2023/04/21 12:59:10;;;;;;;6.00;5.37;;;;;;;21.85;40.22;98120.63;7029781;28;20294;-78
2023/04/21 13:02:35;;;;;;;6.33;5.50;;;;;;;20.63;41.66;98133.34;7028968;28;20225;-78
2023/04/21 13:05:57;;;;;;;5.90;5.40;;;;;;;21.66;40.22;98116.19;7030366;28;20245;-82
2023/04/21 13:09:19;;;;;;;5.40;4.97;;;;;;;22.59;38.77;98115.19;7016111;28;20326;-79
2023/04/21 13:12:41;;;;;;;5.70;4.60;;;;;;;21.19;39.84;98102.44;7002207;28;20214;-79
2023/04/21 13:16:03;;;;;;;4.80;4.40;;;;;;;22.73;37.73;98104.25;7002902;28;20229;-79
2023/04/21 13:19:25;;;;;;;4.20;3.90;;;;;;;22.20;39.75;98113.84;7026193;28;20203;-80
2023/04/21 13:22:46;;;;;;;4.97;4.57;;;;;;;23.51;38.22;98110.56;7030735;28;20224;-80
2023/04/21 13:26:08;;;;;;;3.87;3.57;;;;;;;23.08;35.65;98112.72;7035440;28;20658;-80
2023/04/21 13:29:33;;;;;;;3.67;3.37;;;;;;;22.33;36.81;98102.94;7035124;28;20218;-79
2023/04/21 13:32:54;;;;;;;3.90;3.50;;;;;;;22.34;37.66;98090.00;7035466;28;20201;-81
2023/04/21 13:36:16;;;;;;;4.30;3.90;;;;;;;21.87;38.63;98096.44;7035508;28;20664;-80
2023/04/21 13:39:38;;;;;;;3.57;3.27;;;;;;;21.80;38.28;98078.69;7034790;28;20311;-80
2023/04/21 13:43:00;;;;;;;3.57;3.27;;;;;;;22.49;37.42;98067.84;7031621;28;20616;-80
2023/04/21 13:46:23;;;;;;;4.33;4.00;;;;;;;22.07;37.12;98005.56;7034217;28;20383;-80
2023/04/21 13:49:44;;;;;;;3.80;3.50;;;;;;;21.41;39.77;98080.78;7035454;28;20208;-79
2023/04/21 13:53:06;;;;;;;5.10;4.63;;;;;;;21.38;40.39;98075.91;7034343;28;20232;-79
2023/04/21 13:56:27;;;;;;;4.10;3.80;;;;;;;21.92;40.21;98057.97;7034986;28;20311;-80
2023/04/21 13:59:49;;;;;;;5.13;4.13;;;;;;;22.39;37.61;98085.25;7035079;28;20212;-80
2023/04/21 14:03:12;;;;;;;4.10;3.80;;;;;;;21.90;39.16;98070.34;7027645;28;20360;-80
2023/04/21 14:06:34;;;;;;;4.13;3.83;;;;;;;22.13;38.78;98073.00;7019936;28;20549;-81
2023/04/21 14:09:56;;;;;;;4.10;3.70;;;;;;;22.99;36.84;98062.28;7022374;28;20230;-80
2023/04/21 14:13:18;;;;;;;4.47;3.77;;;;;;;21.92;38.17;98065.34;7028894;28;20242;-81
2023/04/21 14:16:39;;;;;;;3.63;3.33;;;;;;;21.88;38.62;98061.56;7044272;28;20195;-80
2023/04/21 14:20:02;;;;;;;3.37;3.10;;;;;;;22.45;37.35;98059.38;7043522;28;20203;-84
2023/04/21 14:23:24;;;;;;;3.57;3.27;;;;;;;22.78;37.37;98046.47;7073075;28;20232;-82
2023/04/21 14:26:46;;;;;;;3.47;3.17;;;;;;;23.23;35.11;98037.38;7045703;28;20221;-82
2023/04/21 14:30:09;;;;;;;2.90;2.70;;;;;;;23.62;35.54;98021.19;7034353;28;20271;-82
2023/04/21 14:33:31;;;;;;;3.10;2.33;;;;;;;24.20;33.82;98028.41;7027347;28;20231;-81
2023/04/21 14:36:54;;;;;;;2.83;2.43;;;;;;;24.39;32.79;98020.81;7005536;28;20249;-81
2023/04/21 14:40:16;;;;;;;2.70;2.50;;;;;;;24.19;32.84;98035.06;7005334;28;20270;-82
2023/04/21 14:43:38;;;;;;;2.80;2.60;;;;;;;24.57;32.42;98014.31;7005193;28;20321;-82
2023/04/21 14:46:59;;;;;;;2.67;2.47;;;;;;;24.99;31.77;97988.94;7031734;28;20225;-82
2023/04/21 14:50:21;;;;;;;2.67;2.47;;;;;;;23.95;32.58;98017.97;7032805;28;20663;-81
2023/04/21 14:53:45;;;;;;;2.60;2.40;;;;;;;23.30;34.87;98021.31;7033563;28;20328;-81
2023/04/21 14:57:07;;;;;;;2.90;2.60;;;;;;;24.03;33.46;98020.03;7032587;28;20193;-82
2023/04/21 15:00:30;;;;;;;2.70;2.50;;;;;;;23.44;33.51;98016.63;7025945;28;20255;-82
2023/04/21 15:03:52;;;;;;;3.30;3.03;;;;;;;23.93;32.71;98027.69;7006020;28;20603;-83
2023/04/21 15:07:13;;;;;;;2.63;2.43;;;;;;;23.28;33.34;98012.53;7005830;28;20205;-82
2023/04/21 15:10:36;;;;;;;4.57;2.70;;;;;;;24.17;33.26;98012.53;7004762;28;20253;-82
2023/04/21 15:13:58;;;;;;;3.13;2.93;;;;;;;24.08;32.32;98021.84;7004642;28;20311;-82
2023/04/21 15:17:19;;;;;;;3.27;2.90;;;;;;;23.45;34.06;98021.00;7004498;28;20296;-82
2023/04/21 15:20:43;;;;;;;2.80;2.60;;;;;;;23.66;34.72;98006.50;7003687;28;20701;-82
2023/04/21 15:24:05;;;;;;;3.30;3.10;;;;;;;23.45;35.39;97999.81;7003319;28;20690;-82
2023/04/21 15:27:27;;;;;;;2.93;2.73;;;;;;;23.86;35.70;98005.22;7016824;28;20365;-82
2023/04/21 15:30:49;;;;;;;3.00;2.80;;;;;;;24.01;35.04;97996.66;7030764;28;20300;-83
2023/04/21 15:34:10;;;;;;;3.17;2.90;;;;;;;23.57;34.51;97974.50;7015849;28;20295;-81
2023/04/21 15:37:32;;;;;;;3.10;2.80;;;;;;;23.63;35.58;97989.78;7031962;28;20280;-82
2023/04/21 15:40:54;;;;;;;3.80;2.87;;;;;;;23.80;35.38;97985.28;7009800;28;20355;-82
2023/04/21 15:44:17;;;;;;;3.77;3.47;;;;;;;24.03;34.53;97988.91;7010613;28;20233;-81
2023/04/21 15:47:38;;;;;;;3.30;2.97;;;;;;;23.99;35.77;97996.97;7031241;28;20337;-82
2023/04/21 15:51:00;;;;;;;3.43;2.93;;;;;;;23.86;35.87;97992.28;7030833;28;20238;-81